createdAt,value
2022-11-12T00:05:05.089Z,4.97
2022-11-12T00:11:07.369Z,5.05
2022-11-12T00:17:09.246Z,5.00
2022-11-12T00:23:11.141Z,5.10
2022-11-12T00:29:13.000Z,5.05
2022-11-12T00:35:14.943Z,4.93
2022-11-12T00:41:16.778Z,4.77
2022-11-12T00:47:18.838Z,4.71
2022-11-12T00:53:20.697Z,4.65
2022-11-12T00:59:22.706Z,4.57
2022-11-12T01:05:24.583Z,4.49
2022-11-12T01:11:29.505Z,4.39
2022-11-12T01:17:32.052Z,4.38
2022-11-12T01:23:40.202Z,4.31
2022-11-12T01:29:42.104Z,4.20
2022-11-12T01:35:43.961Z,4.05
2022-11-12T01:41:45.925Z,3.95
2022-11-12T01:47:51.038Z,3.74
2022-11-12T01:53:58.521Z,3.64
2022-11-12T02:00:07.856Z,3.62
2022-11-12T02:06:14.279Z,3.51
2022-11-12T02:12:36.305Z,3.42
2022-11-12T02:18:38.185Z,3.41
2022-11-12T02:24:40.067Z,3.45
2022-11-12T02:30:49.358Z,3.48
2022-11-12T02:36:51.244Z,3.41
2022-11-12T02:42:53.178Z,3.44
2022-11-12T02:48:55.028Z,3.51
2022-11-12T02:54:56.878Z,3.52
2022-11-12T03:00:58.943Z,3.50
2022-11-12T03:07:00.883Z,3.64
2022-11-12T03:13:03.265Z,3.56
2022-11-12T03:19:05.150Z,3.47
2022-11-12T03:25:08.861Z,3.36
2022-11-12T03:31:11.932Z,3.26
2022-11-12T03:37:13.832Z,3.24
2022-11-12T03:43:15.731Z,3.05
2022-11-12T03:49:17.575Z,3.03
2022-11-12T03:55:22.506Z,3.02
2022-11-12T04:01:24.407Z,3.08
2022-11-12T04:07:45.174Z,3.52
2022-11-12T04:13:47.624Z,3.85
2022-11-12T04:20:07.768Z,3.85
2022-11-12T04:26:24.730Z,4.11
2022-11-12T04:32:27.452Z,4.18
2022-11-12T04:38:29.437Z,3.77
2022-11-12T04:44:49.699Z,3.52
2022-11-12T04:51:01.288Z,3.48
2022-11-12T04:57:03.330Z,3.54
2022-11-12T05:03:05.242Z,3.60
2022-11-12T05:09:07.097Z,3.53
2022-11-12T05:15:11.661Z,3.52
2022-11-12T05:21:32.313Z,3.41
2022-11-12T05:27:34.974Z,3.68
2022-11-12T05:33:36.858Z,3.56
2022-11-12T05:39:39.011Z,3.21
2022-11-12T05:45:44.127Z,3.04
2022-11-12T05:51:46.067Z,2.95
2022-11-12T05:57:47.895Z,2.84
2022-11-12T06:03:49.791Z,2.88
2022-11-12T06:09:51.642Z,2.97
2022-11-12T06:15:55.259Z,2.82
2022-11-12T06:21:57.278Z,2.86
2022-11-12T06:27:59.457Z,2.92
2022-11-12T06:34:01.332Z,2.91
2022-11-12T06:40:03.709Z,2.88
2022-11-12T06:46:17.087Z,2.87
2022-11-12T06:52:18.941Z,2.72
2022-11-12T06:58:21.891Z,3.00
2022-11-12T07:04:25.461Z,3.15
2022-11-12T07:10:27.336Z,3.33
2022-11-12T07:16:29.206Z,3.67
2022-11-12T07:22:34.381Z,3.66
2022-11-12T07:28:36.363Z,3.68
2022-11-12T07:34:38.254Z,3.98
2022-11-12T07:40:40.167Z,4.01
2022-11-12T07:46:42.055Z,4.14
2022-11-12T07:52:43.924Z,4.30
2022-11-12T07:58:46.757Z,4.52
2022-11-12T08:04:48.608Z,4.67
2022-11-12T08:10:56.496Z,5.06
2022-11-12T08:16:58.404Z,5.11
2022-11-12T08:23:00.745Z,5.48
2022-11-12T08:29:08.267Z,5.61
2022-11-12T08:35:10.820Z,5.70
2022-11-12T08:41:14.814Z,5.81
2022-11-12T08:47:16.679Z,5.94
2022-11-12T08:53:18.583Z,6.01
2022-11-12T08:59:20.440Z,6.25
2022-11-12T09:05:22.342Z,6.47
2022-11-12T09:11:24.225Z,6.50
2022-11-12T09:17:26.114Z,6.57
2022-11-12T09:23:28.259Z,6.72
2022-11-12T09:29:30.176Z,6.91
2022-11-12T09:35:32.154Z,7.18
2022-11-12T09:41:39.931Z,7.63
2022-11-12T09:47:48.722Z,7.85
2022-11-12T09:54:27.504Z,7.99
2022-11-12T10:00:30.180Z,8.38
2022-11-12T10:06:44.299Z,8.99
2022-11-12T10:12:56.442Z,9.58
2022-11-12T10:19:34.073Z,10.13
2022-11-12T10:25:37.601Z,10.78
2022-11-12T10:31:39.476Z,11.06
2022-11-12T10:38:04.035Z,11.52
2022-11-12T10:44:13.751Z,11.66
2022-11-12T10:50:30.181Z,12.11
2022-11-12T10:56:32.629Z,12.62
2022-11-12T11:02:35.054Z,12.99
2022-11-12T11:08:42.819Z,13.27
2022-11-12T11:14:44.831Z,13.85
2022-11-12T11:20:59.509Z,14.02
2022-11-12T11:27:25.275Z,14.32
2022-11-12T11:33:55.104Z,14.68
2022-11-12T11:40:14.447Z,14.91
2022-11-12T11:46:55.116Z,15.00
2022-11-12T11:53:21.743Z,15.03
2022-11-12T11:59:46.037Z,15.16
2022-11-12T12:06:15.790Z,15.18
2022-11-12T12:12:35.830Z,15.09
2022-11-12T12:18:49.405Z,14.78
2022-11-12T12:25:10.662Z,14.79
2022-11-12T12:31:18.542Z,14.80
2022-11-12T12:38:08.939Z,15.15
2022-11-12T12:44:11.438Z,15.08
2022-11-12T12:50:17.374Z,14.95
2022-11-12T12:56:31.510Z,14.92
2022-11-12T13:02:38.757Z,14.87
2022-11-12T13:08:40.869Z,14.92
2022-11-12T13:14:42.626Z,14.87
2022-11-12T13:21:12.597Z,14.86
2022-11-12T13:27:14.465Z,14.70
2022-11-12T13:33:29.252Z,14.37
2022-11-12T13:39:36.188Z,14.30
2022-11-12T13:46:26.368Z,14.27
2022-11-12T13:52:29.320Z,14.19
2022-11-12T13:58:34.890Z,14.19
2022-11-12T14:04:36.818Z,14.10
2022-11-12T14:10:59.691Z,13.96
2022-11-12T14:17:49.706Z,13.75
2022-11-12T14:23:52.438Z,13.36
2022-11-12T14:30:18.849Z,13.00
2022-11-12T14:36:22.022Z,12.86
2022-11-12T14:42:24.202Z,12.48
2022-11-12T14:48:26.920Z,11.89
2022-11-12T14:54:34.446Z,11.46
2022-11-12T15:00:44.723Z,11.24
2022-11-12T15:06:57.752Z,10.90
2022-11-12T15:13:15.623Z,10.57
2022-11-12T15:19:21.105Z,10.43
2022-11-12T15:25:27.335Z,10.00
2022-11-12T15:31:29.701Z,9.99
2022-11-12T15:37:40.591Z,9.72
2022-11-12T15:43:43.386Z,9.77
2022-11-12T15:49:51.307Z,9.37
2022-11-12T15:55:53.251Z,9.27
2022-11-12T16:01:55.144Z,9.17
2022-11-12T16:07:57.015Z,8.98
2022-11-12T16:13:59.330Z,8.91
2022-11-12T16:20:01.273Z,8.81
2022-11-12T16:26:07.704Z,8.82
2022-11-12T16:32:14.219Z,8.59
2022-11-12T16:38:17.552Z,8.51
2022-11-12T16:44:19.482Z,8.40
2022-11-12T16:50:28.122Z,8.16
2022-11-12T16:56:33.604Z,8.42
2022-11-12T17:02:40.627Z,8.20
2022-11-12T17:08:48.000Z,8.07
2022-11-12T17:14:49.878Z,8.07
2022-11-12T17:20:51.762Z,7.92
2022-11-12T17:26:53.909Z,7.83
2022-11-12T17:32:55.750Z,7.75
2022-11-12T17:38:59.969Z,7.78
2022-11-12T17:45:01.866Z,7.54
2022-11-12T17:51:12.109Z,7.49
2022-11-12T17:57:13.988Z,7.48
2022-11-12T18:03:16.023Z,7.49
2022-11-12T18:09:17.920Z,7.34
2022-11-12T18:15:20.134Z,7.39
2022-11-12T18:21:22.715Z,7.07
2022-11-12T18:27:24.691Z,7.10
2022-11-12T18:33:27.091Z,7.14
2022-11-12T18:39:29.334Z,7.19
2022-11-12T18:45:31.214Z,7.18
2022-11-12T18:51:33.351Z,7.17
2022-11-12T18:57:35.247Z,7.11
2022-11-12T19:03:37.250Z,7.01
2022-11-12T19:09:39.307Z,7.00
2022-11-12T19:15:41.245Z,6.95
2022-11-12T19:21:43.139Z,6.79
2022-11-12T19:27:45.043Z,6.69
2022-11-12T19:33:47.368Z,6.65
2022-11-12T19:39:49.242Z,6.75
2022-11-12T19:45:51.119Z,6.68
2022-11-12T19:51:53.019Z,6.57
2022-11-12T19:57:55.242Z,6.42
2022-11-12T20:03:57.144Z,6.24
2022-11-12T20:10:01.110Z,6.02
2022-11-12T20:16:08.528Z,5.99
2022-11-12T20:22:10.978Z,5.79
2022-11-12T20:28:12.854Z,5.70
2022-11-12T20:34:14.884Z,5.62
2022-11-12T20:40:17.586Z,5.38
2022-11-12T20:46:19.623Z,5.32
2022-11-12T20:52:21.496Z,5.26
2022-11-12T20:58:23.344Z,5.19
2022-11-12T21:04:26.166Z,5.11
2022-11-12T21:10:28.105Z,5.26
2022-11-12T21:16:30.066Z,5.44
2022-11-12T21:22:32.739Z,5.47
2022-11-12T21:28:38.030Z,5.56
2022-11-12T21:34:39.891Z,5.56
2022-11-12T21:40:41.752Z,5.37
2022-11-12T21:46:43.600Z,5.16
2022-11-12T21:52:45.475Z,5.10
2022-11-12T21:58:47.369Z,5.02
2022-11-12T22:04:49.232Z,4.90
2022-11-12T22:10:51.097Z,4.93
2022-11-12T22:16:52.959Z,4.90
2022-11-12T22:22:54.884Z,4.90
2022-11-12T22:28:58.985Z,4.83
2022-11-12T22:35:00.882Z,4.81
2022-11-12T22:41:09.201Z,4.68
2022-11-12T22:47:11.083Z,4.63
2022-11-12T22:53:12.934Z,4.68
2022-11-12T22:59:14.815Z,4.63
2022-11-12T23:05:16.691Z,4.76
2022-11-12T23:11:20.073Z,4.66
2022-11-12T23:17:21.965Z,4.46
2022-11-12T23:23:23.828Z,4.36
2022-11-12T23:29:25.698Z,4.31
2022-11-12T23:35:29.326Z,4.35
2022-11-12T23:41:31.162Z,4.31
2022-11-12T23:47:33.007Z,4.30
2022-11-12T23:53:36.273Z,4.24
2022-11-12T23:59:38.166Z,4.27
